Time;durP1;ratioP1;P1;durP2;ratioP2;P2;SDS_P1;SDS_P2;PMS_P1;PMS_P2;Temp;Humidity;BMP_temperature;BMP_pressure;BME280_temperature;BME280_humidity;BME280_pressure;Samples;Min_cycle;Max_cycle;Signal;HPM_P1;HPM_P2
2023/06/04 00:02:24;;;;;;;9.57;5.80;;;13.10;26.30;;;;;;5015475;28;46462;-65
2023/06/04 00:04:49;;;;;;;15.60;6.90;;;13.10;26.40;;;;;;5016479;28;46414;-65
2023/06/04 00:07:15;;;;;;;9.53;6.37;;;13.10;26.50;;;;;;4997866;28;46485;-65
2023/06/04 00:09:41;;;;;;;11.10;5.77;;;13.10;26.60;;;;;;5014440;28;46363;-65
2023/06/04 00:12:07;;;;;;;11.27;6.50;;;13.10;26.70;;;;;;5015992;28;46422;-64
2023/06/04 00:14:32;;;;;;;9.90;6.70;;;13.10;26.80;;;;;;5016836;28;46455;-64
2023/06/04 00:16:58;;;;;;;12.43;7.07;;;12.90;26.80;;;;;;5018635;28;46487;-64
2023/06/04 00:19:23;;;;;;;16.60;7.23;;;12.80;27.10;;;;;;5018326;28;46498;-64
2023/06/04 00:21:49;;;;;;;15.57;6.50;;;12.70;27.40;;;;;;5014898;28;46436;-64
2023/06/04 00:24:16;;;;;;;15.80;7.40;;;12.60;27.70;;;;;;5017822;28;46406;-65
2023/06/04 00:26:42;;;;;;;12.70;7.30;;;12.50;28.80;;;;;;5014289;28;46389;-64
2023/06/04 00:29:07;;;;;;;8.83;5.83;;;12.40;27.80;;;;;;5017058;28;46437;-64
2023/06/04 00:31:33;;;;;;;13.07;7.13;;;12.40;27.80;;;;;;5016842;28;46535;-64
2023/06/04 00:33:59;;;;;;;13.63;6.87;;;12.30;27.70;;;;;;5017153;28;46624;-64
2023/06/04 00:36:24;;;;;;;11.03;6.83;;;12.30;27.70;;;;;;5015478;28;45988;-64
2023/06/04 00:38:50;;;;;;;12.60;7.07;;;12.20;27.70;;;;;;5017579;28;46426;-64
2023/06/04 00:41:16;;;;;;;11.70;6.37;;;12.20;27.70;;;;;;5018555;28;46383;-64
2023/06/04 00:43:45;;;;;;;12.40;7.17;;;12.10;27.60;;;;;;5014673;28;46400;-64
2023/06/04 00:46:17;;;;;;;12.80;7.60;;;12.10;27.60;;;;;;4995948;28;46630;-64
2023/06/04 00:48:43;;;;;;;12.73;7.50;;;12.10;27.60;;;;;;5019481;28;46623;-65
2023/06/04 00:51:09;;;;;;;16.03;7.43;;;12.10;27.60;;;;;;5014338;28;46448;-64
2023/06/04 00:53:35;;;;;;;12.07;6.60;;;12.10;27.60;;;;;;5015020;28;46418;-65
2023/06/04 00:56:01;;;;;;;15.27;7.07;;;12.00;27.50;;;;;;5018648;28;46616;-65
2023/06/04 00:58:26;;;;;;;14.13;7.27;;;11.90;27.80;;;;;;5019439;28;47138;-65
2023/06/04 01:00:56;;;;;;;15.43;6.00;;;11.80;28.20;;;;;;5017152;28;46367;-65
2023/06/04 01:03:25;;;;;;;12.20;6.70;;;11.70;28.50;;;;;;5014317;28;46479;-65
2023/06/04 01:05:59;;;;;;;11.57;6.50;;;11.60;28.60;;;;;;5010916;28;46657;-65
2023/06/04 01:08:27;;;;;;;10.17;6.50;;;11.60;28.80;;;;;;5013230;28;47917;-64
2023/06/04 01:10:53;;;;;;;16.00;7.03;;;11.50;28.90;;;;;;5016918;28;46368;-64
2023/06/04 01:13:19;;;;;;;14.13;7.13;;;11.40;29.10;;;;;;5000979;28;46544;-65
2023/06/04 01:15:45;;;;;;;12.13;7.10;;;11.40;29.30;;;;;;5014754;28;46348;-64
2023/06/04 01:18:24;;;;;;;12.40;6.23;;;11.30;29.30;;;;;;5015320;28;46975;-64
2023/06/04 01:20:50;;;;;;;12.10;7.50;;;11.20;29.50;;;;;;5019422;28;46415;-64
2023/06/04 01:23:23;;;;;;;13.33;6.80;;;11.20;29.60;;;;;;5014961;28;46391;-64
2023/06/04 01:25:50;;;;;;;11.07;6.30;;;11.10;29.80;;;;;;5018001;28;46501;-64
2023/06/04 01:28:17;;;;;;;14.50;7.23;;;11.00;29.90;;;;;;5015543;28;47180;-65
2023/06/04 01:30:45;;;;;;;11.00;7.00;;;11.00;30.10;;;;;;5017574;28;46499;-65
2023/06/04 01:33:17;;;;;;;12.33;7.03;;;10.90;30.20;;;;;;5018777;28;45879;-64
2023/06/04 01:35:43;;;;;;;18.67;7.13;;;10.80;30.40;;;;;;5015075;28;45918;-64
2023/06/04 01:38:09;;;;;;;12.90;6.90;;;10.70;30.40;;;;;;5016810;28;47143;-64
2023/06/04 01:40:35;;;;;;;10.83;7.00;;;10.70;30.60;;;;;;5016099;28;46404;-64
2023/06/04 01:43:00;;;;;;;13.70;7.30;;;10.70;30.80;;;;;;5013513;28;46475;-64
2023/06/04 01:45:27;;;;;;;11.57;6.97;;;10.70;30.80;;;;;;5012952;28;46363;-64
2023/06/04 01:47:53;;;;;;;11.23;6.67;;;10.70;30.70;;;;;;5013225;28;46415;-65
2023/06/04 01:50:20;;;;;;;16.17;7.10;;;10.70;30.80;;;;;;5015839;28;46460;-65
2023/06/04 01:52:45;;;;;;;11.07;7.07;;;10.60;31.00;;;;;;5014675;28;46403;-64
2023/06/04 01:55:14;;;;;;;11.37;7.00;;;10.50;31.10;;;;;;5016282;28;46260;-64
2023/06/04 01:57:40;;;;;;;12.33;7.20;;;10.50;31.50;;;;;;5012763;28;46422;-65
2023/06/04 02:00:09;;;;;;;13.27;6.97;;;10.40;31.50;;;;;;5011556;28;46582;-65
2023/06/04 02:02:38;;;;;;;16.33;6.43;;;10.40;31.60;;;;;;5018584;28;46446;-64
2023/06/04 02:05:07;;;;;;;10.87;7.33;;;10.40;31.50;;;;;;5014405;28;46382;-65
2023/06/04 02:07:40;;;;;;;11.83;6.57;;;10.40;31.50;;;;;;5016280;28;46903;-65
2023/06/04 02:10:07;;;;;;;15.27;6.70;;;10.40;31.50;;;;;;5017322;28;46454;-63
2023/06/04 02:12:32;;;;;;;11.63;7.00;;;10.40;31.50;;;;;;5018277;28;46436;-64
2023/06/04 02:14:58;;;;;;;10.77;6.23;;;10.30;31.60;;;;;;5016536;28;45888;-63
2023/06/04 02:17:25;;;;;;;13.70;7.70;;;10.30;31.80;;;;;;5013638;28;48254;-64
2023/06/04 02:19:50;;;;;;;11.13;6.97;;;10.30;31.80;;;;;;5016554;28;46359;-65
2023/06/04 02:22:19;;;;;;;15.80;7.67;;;10.30;31.80;;;;;;5014011;28;46493;-63
2023/06/04 02:24:46;;;;;;;10.63;6.53;;;10.40;31.90;;;;;;5014082;28;46434;-64
2023/06/04 02:27:12;;;;;;;13.10;7.00;;;10.40;31.90;;;;;;5012162;28;48085;-63
2023/06/04 02:29:39;;;;;;;12.20;7.20;;;10.40;32.00;;;;;;5016831;28;46394;-64
2023/06/04 02:32:06;;;;;;;15.00;6.47;;;10.30;32.10;;;;;;5018198;28;46446;-65
2023/06/04 02:34:33;;;;;;;12.63;6.77;;;10.30;32.30;;;;;;5014205;28;46358;-64
2023/06/04 02:36:59;;;;;;;10.90;6.43;;;10.20;32.50;;;;;;5015860;28;47046;-64
2023/06/04 02:39:25;;;;;;;12.43;6.40;;;10.20;32.70;;;;;;5017235;28;46740;-65
2023/06/04 02:41:50;;;;;;;14.77;7.80;;;10.10;32.90;;;;;;5020315;28;46442;-64
2023/06/04 02:44:16;;;;;;;13.07;7.47;;;10.10;32.90;;;;;;5019844;28;46403;-64
2023/06/04 02:46:42;;;;;;;9.60;6.70;;;10.10;33.10;;;;;;5015809;28;47102;-64
2023/06/04 02:49:09;;;;;;;10.63;6.80;;;10.10;33.10;;;;;;5014800;28;46478;-64
2023/06/04 02:51:34;;;;;;;9.40;6.10;;;10.00;33.20;;;;;;5018834;28;46448;-64
2023/06/04 02:54:00;;;;;;;11.33;6.50;;;9.90;34.40;;;;;;5019798;28;46198;-64
2023/06/04 02:56:26;;;;;;;14.07;7.13;;;9.90;34.60;;;;;;4999139;28;48106;-64
2023/06/04 02:58:53;;;;;;;8.83;6.60;;;9.80;34.70;;;;;;5017056;28;46488;-64
2023/06/04 03:01:26;;;;;;;8.67;5.70;;;9.80;34.70;;;;;;5016279;28;46378;-64
2023/06/04 03:03:53;;;;;;;11.40;6.40;;;9.80;34.90;;;;;;5021461;28;46446;-64
2023/06/04 03:06:20;;;;;;;12.73;6.97;;;9.80;34.60;;;;;;5018633;28;46956;-64
2023/06/04 03:08:47;;;;;;;10.57;7.03;;;9.80;34.80;;;;;;5017556;28;46347;-64
2023/06/04 03:11:13;;;;;;;10.77;6.93;;;9.80;34.80;;;;;;5015479;28;45805;-64
2023/06/04 03:13:39;;;;;;;8.93;6.00;;;9.70;34.80;;;;;;5018490;28;46321;-63
2023/06/04 03:16:09;;;;;;;9.43;6.70;;;9.70;35.00;;;;;;5018853;28;46571;-64
2023/06/04 03:18:36;;;;;;;10.73;6.80;;;9.70;35.10;;;;;;5015367;28;46367;-64
2023/06/04 03:21:02;;;;;;;9.67;6.60;;;9.70;35.30;;;;;;5014436;28;46505;-64
2023/06/04 03:23:28;;;;;;;10.67;6.30;;;9.70;35.30;;;;;;5020479;28;46660;-64
2023/06/04 03:25:53;;;;;;;10.47;6.13;;;9.70;35.30;;;;;;5020586;28;47256;-64
2023/06/04 03:28:19;;;;;;;10.20;6.60;;;9.70;35.30;;;;;;5019830;28;46378;-64
2023/06/04 03:30:45;;;;;;;11.43;6.37;;;9.70;35.40;;;;;;5017002;28;46343;-64
2023/06/04 03:33:11;;;;;;;12.63;6.87;;;9.70;35.40;;;;;;5020913;28;45836;-64
2023/06/04 03:35:36;;;;;;;11.93;6.80;;;9.80;35.60;;;;;;5017919;28;46482;-65
2023/06/04 03:38:02;;;;;;;11.23;6.73;;;9.80;35.60;;;;;;5018092;28;46332;-65
2023/06/04 03:40:27;;;;;;;12.47;6.57;;;9.80;35.50;;;;;;5017325;28;46413;-65
2023/06/04 03:42:53;;;;;;;10.33;6.10;;;9.80;35.80;;;;;;5019401;28;46408;-64
2023/06/04 03:45:19;;;;;;;11.07;6.07;;;9.80;35.70;;;;;;5020220;28;46375;-64
2023/06/04 03:47:45;;;;;;;9.70;6.30;;;9.90;35.50;;;;;;5018405;28;46740;-64
2023/06/04 03:50:11;;;;;;;10.50;5.87;;;10.00;34.50;;;;;;5016717;28;46455;-64
2023/06/04 03:52:36;;;;;;;10.23;6.20;;;10.00;35.70;;;;;;5020089;28;46411;-64
2023/06/04 03:55:03;;;;;;;10.27;5.87;;;10.00;34.40;;;;;;5018961;28;46914;-64
2023/06/04 03:57:29;;;;;;;9.77;6.10;;;10.10;34.40;;;;;;5016333;28;46399;-64
2023/06/04 03:59:55;;;;;;;11.03;6.43;;;10.20;34.40;;;;;;5017264;28;46404;-64
2023/06/04 04:02:20;;;;;;;11.23;6.23;;;10.30;34.20;;;;;;5017831;28;46439;-64
2023/06/04 04:04:46;;;;;;;9.17;5.73;;;10.40;34.30;;;;;;5018953;28;46320;-64
2023/06/04 04:07:12;;;;;;;9.80;5.93;;;10.50;34.00;;;;;;5017448;28;46451;-64
2023/06/04 04:09:37;;;;;;;11.50;6.80;;;10.60;33.80;;;;;;5019072;28;45795;-64
2023/06/04 04:12:04;;;;;;;7.70;5.30;;;10.70;34.90;;;;;;5016055;28;46470;-64
2023/06/04 04:14:29;;;;;;;10.20;6.50;;;10.70;33.60;;;;;;5019285;28;46445;-64
2023/06/04 04:16:55;;;;;;;9.63;5.60;;;10.80;34.90;;;;;;5018443;28;45811;-64
2023/06/04 04:19:21;;;;;;;8.30;5.63;;;11.00;33.40;;;;;;5016524;28;46481;-64
2023/06/04 04:21:50;;;;;;;8.70;5.30;;;11.10;33.20;;;;;;5015396;28;46574;-64
2023/06/04 04:24:26;;;;;;;10.90;6.20;;;11.20;33.10;;;;;;5016984;28;46637;-64
2023/06/04 04:26:53;;;;;;;8.93;5.90;;;11.30;33.20;;;;;;5018937;28;46334;-64
2023/06/04 04:29:22;;;;;;;12.43;5.97;;;11.40;33.00;;;;;;5017272;28;46371;-65
2023/06/04 04:31:49;;;;;;;9.20;6.00;;;11.50;32.80;;;;;;5016444;28;46569;-65
2023/06/04 04:34:14;;;;;;;13.47;6.73;;;11.70;32.50;;;;;;5017143;28;46394;-64
2023/06/04 04:36:40;;;;;;;12.27;6.53;;;11.90;32.20;;;;;;5017983;28;46441;-63
2023/06/04 04:39:06;;;;;;;9.40;6.00;;;12.10;31.90;;;;;;5018092;28;46311;-65
2023/06/04 04:41:32;;;;;;;8.13;5.60;;;12.30;31.50;;;;;;5016022;28;46383;-65
2023/06/04 04:44:04;;;;;;;7.00;5.37;;;12.90;30.40;;;;;;5017696;28;46877;-65
2023/06/04 04:46:30;;;;;;;14.23;5.50;;;14.60;30.30;;;;;;5018183;28;46391;-65
2023/06/04 04:48:55;;;;;;;8.73;5.50;;;16.10;27.40;;;;;;5018198;28;46354;-65
2023/06/04 04:51:21;;;;;;;10.40;5.23;;;17.50;25.50;;;;;;5015820;28;46414;-65
2023/06/04 04:53:47;;;;;;;8.40;5.77;;;18.40;23.90;;;;;;5016015;28;47140;-65
2023/06/04 04:56:13;;;;;;;8.70;5.20;;;19.10;22.70;;;;;;5016487;28;46371;-65
2023/06/04 04:58:39;;;;;;;6.83;4.87;;;19.40;22.00;;;;;;5013863;28;46392;-65
2023/06/04 05:01:04;;;;;;;8.47;4.63;;;20.10;20.80;;;;;;5020534;28;46291;-65
2023/06/04 05:03:30;;;;;;;9.20;5.63;;;20.90;19.30;;;;;;5020232;28;46483;-66
2023/06/04 05:05:56;;;;;;;10.67;5.90;;;21.60;17.90;;;;;;5015831;28;46389;-66
2023/06/04 05:08:21;;;;;;;10.57;5.17;;;22.20;16.80;;;;;;5015250;28;46446;-64
2023/06/04 05:10:47;;;;;;;8.97;5.07;;;22.60;15.70;;;;;;5016087;28;46478;-65
2023/06/04 05:13:12;;;;;;;7.27;4.77;;;23.20;14.50;;;;;;5016307;28;46503;-66
2023/06/04 05:15:39;;;;;;;12.13;4.37;;;23.50;13.80;;;;;;5016648;28;46778;-64
2023/06/04 05:18:05;;;;;;;7.53;4.50;;;23.80;12.50;;;;;;5015378;28;46589;-64
2023/06/04 05:20:31;;;;;;;7.40;4.53;;;24.00;11.80;;;;;;5016261;28;46520;-65
2023/06/04 05:22:56;;;;;;;11.87;6.20;;;24.20;11.30;;;;;;5018301;28;47286;-64
2023/06/04 05:25:22;;;;;;;7.30;4.40;;;24.30;9.20;;;;;;5017358;28;46339;-65
2023/06/04 05:27:49;;;;;;;7.77;4.27;;;24.60;8.00;;;;;;5018672;28;46283;-65
2023/06/04 05:30:15;;;;;;;9.07;4.60;;;24.70;7.80;;;;;;5017192;28;46423;-65
2023/06/04 05:32:40;;;;;;;10.70;5.00;;;24.90;7.30;;;;;;5016072;28;47367;-64
2023/06/04 05:35:07;;;;;;;7.23;4.40;;;25.10;7.20;;;;;;5005211;28;46387;-64
2023/06/04 05:37:37;;;;;;;7.83;4.67;;;25.30;5.90;;;;;;5018004;28;46414;-65
2023/06/04 05:40:05;;;;;;;7.50;4.43;;;25.30;5.70;;;;;;4995852;28;46592;-64
2023/06/04 05:42:30;;;;;;;7.50;4.30;;;25.00;5.30;;;;;;5013774;28;46416;-64
2023/06/04 05:44:56;;;;;;;6.27;3.93;;;24.80;5.30;;;;;;5017317;28;46530;-64
2023/06/04 05:47:22;;;;;;;9.20;3.97;;;24.70;4.40;;;;;;5018606;28;46375;-64
2023/06/04 05:49:47;;;;;;;10.00;4.40;;;24.90;3.40;;;;;;5016279;28;46458;-65
2023/06/04 05:52:13;;;;;;;10.60;4.53;;;24.50;4.60;;;;;;5014658;28;46435;-65
2023/06/04 05:54:39;;;;;;;8.77;4.13;;;22.70;7.60;;;;;;5016696;28;46479;-64
2023/06/04 05:57:05;;;;;;;5.80;3.90;;;21.20;10.40;;;;;;5016081;28;46426;-64
2023/06/04 05:59:31;;;;;;;9.70;3.70;;;20.40;11.60;;;;;;5017123;28;46687;-64
2023/06/04 06:01:57;;;;;;;10.40;4.50;;;20.10;12.20;;;;;;5013375;28;47241;-64
2023/06/04 06:04:22;;;;;;;9.33;3.90;;;19.90;12.50;;;;;;5016668;28;46429;-64
2023/06/04 06:06:48;;;;;;;8.93;4.30;;;19.70;12.60;;;;;;5017924;28;46264;-65
2023/06/04 06:09:15;;;;;;;9.33;3.90;;;19.50;11.90;;;;;;5015400;28;46413;-65
2023/06/04 06:11:41;;;;;;;13.03;4.10;;;19.60;11.90;;;;;;5015674;28;46445;-64
2023/06/04 06:14:06;;;;;;;7.30;4.50;;;19.60;11.10;;;;;;5020128;28;46714;-64
2023/06/04 06:16:32;;;;;;;8.00;4.17;;;19.50;11.00;;;;;;5020722;28;46480;-63
2023/06/04 06:18:58;;;;;;;9.30;3.77;;;19.30;11.60;;;;;;5021941;28;46537;-63
2023/06/04 06:21:24;;;;;;;8.17;4.40;;;19.20;10.80;;;;;;5019733;28;46330;-65
2023/06/04 06:23:51;;;;;;;6.67;3.90;;;19.10;10.70;;;;;;5018820;28;46518;-65
2023/06/04 06:26:16;;;;;;;15.73;4.83;;;18.90;10.50;;;;;;5017468;28;45930;-64
2023/06/04 06:28:42;;;;;;;8.20;4.33;;;18.80;11.10;;;;;;5019225;28;46284;-64
2023/06/04 06:31:08;;;;;;;9.80;4.60;;;19.00;11.20;;;;;;5018167;28;46378;-64
2023/06/04 06:33:33;;;;;;;9.70;4.07;;;18.70;11.80;;;;;;5018689;28;46371;-64
2023/06/04 06:36:02;;;;;;;9.00;4.27;;;18.60;12.30;;;;;;5017024;28;46511;-64
2023/06/04 06:38:27;;;;;;;6.50;3.83;;;18.40;12.80;;;;;;5017278;28;45931;-64
2023/06/04 06:40:53;;;;;;;14.53;4.90;;;18.20;13.30;;;;;;5017884;28;46500;-64
2023/06/04 06:43:19;;;;;;;16.30;4.63;;;18.40;13.00;;;;;;5018378;28;46279;-64
2023/06/04 06:45:45;;;;;;;14.00;4.00;;;18.40;12.90;;;;;;5018782;28;46284;-64
2023/06/04 06:48:11;;;;;;;10.03;3.63;;;18.50;12.60;;;;;;5017770;28;46540;-63
2023/06/04 06:50:36;;;;;;;9.83;3.80;;;18.70;12.30;;;;;;5019739;28;47086;-64
2023/06/04 06:53:02;;;;;;;7.33;4.47;;;19.00;12.10;;;;;;5019708;28;46319;-64
2023/06/04 06:55:28;;;;;;;7.00;3.90;;;19.10;12.00;;;;;;5017164;28;46318;-64
2023/06/04 06:57:53;;;;;;;10.00;4.10;;;19.20;11.90;;;;;;5019021;28;46413;-64
2023/06/04 07:00:19;;;;;;;11.33;4.00;;;18.90;12.30;;;;;;5019729;28;46229;-64
2023/06/04 07:02:45;;;;;;;10.10;4.50;;;18.80;12.80;;;;;;5017408;28;46456;-63
2023/06/04 07:05:11;;;;;;;8.23;4.50;;;19.10;12.70;;;;;;5019016;28;45991;-65
2023/06/04 07:07:36;;;;;;;10.60;4.30;;;19.40;12.20;;;;;;5019344;28;46428;-64
2023/06/04 07:10:03;;;;;;;10.20;4.23;;;19.20;12.60;;;;;;5019579;28;46881;-64
2023/06/04 07:12:29;;;;;;;6.60;4.00;;;18.90;13.30;;;;;;5017096;28;46538;-64
2023/06/04 07:14:55;;;;;;;8.87;4.40;;;18.90;13.70;;;;;;5015798;28;46378;-64
2023/06/04 07:17:22;;;;;;;7.03;4.20;;;19.10;13.40;;;;;;5018516;28;46382;-64
2023/06/04 07:19:47;;;;;;;13.70;4.90;;;19.00;13.80;;;;;;5002838;28;47845;-64
2023/06/04 07:22:15;;;;;;;7.00;3.47;;;19.20;13.90;;;;;;5017555;28;46471;-64
2023/06/04 07:24:41;;;;;;;11.93;4.20;;;19.50;13.60;;;;;;5016040;28;46839;-65
2023/06/04 07:27:13;;;;;;;8.70;4.27;;;19.70;13.10;;;;;;5018080;28;46447;-65
2023/06/04 07:29:39;;;;;;;6.10;4.10;;;19.60;13.40;;;;;;5018699;28;46547;-65
2023/06/04 07:32:06;;;;;;;7.93;4.63;;;19.40;14.00;;;;;;5016737;28;46402;-65
2023/06/04 07:34:32;;;;;;;11.73;5.40;;;19.40;14.10;;;;;;5018071;28;46437;-65
2023/06/04 07:36:58;;;;;;;8.10;5.00;;;19.40;14.20;;;;;;5019561;28;46507;-64
2023/06/04 07:39:23;;;;;;;10.13;4.03;;;19.30;14.20;;;;;;5018364;28;46381;-65
2023/06/04 07:41:49;;;;;;;8.33;4.50;;;19.30;14.20;;;;;;5017251;28;46502;-65
2023/06/04 07:44:15;;;;;;;11.23;4.70;;;19.40;14.50;;;;;;5018304;28;46777;-64
2023/06/04 07:46:41;;;;;;;7.70;4.80;;;19.50;14.20;;;;;;5017630;28;46421;-65
2023/06/04 07:49:06;;;;;;;9.03;4.60;;;19.60;14.20;;;;;;5014870;28;47216;-64
2023/06/04 07:51:32;;;;;;;8.90;4.30;;;19.80;13.70;;;;;;5015114;28;46394;-65
2023/06/04 07:53:57;;;;;;;8.20;4.00;;;20.00;13.60;;;;;;5018111;28;46410;-65
2023/06/04 07:56:23;;;;;;;8.40;4.13;;;20.20;13.10;;;;;;5017422;28;46398;-65
2023/06/04 07:58:49;;;;;;;10.43;3.53;;;19.90;13.30;;;;;;5018074;28;47279;-65
2023/06/04 08:01:15;;;;;;;12.57;4.53;;;19.80;13.60;;;;;;5017952;28;46428;-64
2023/06/04 08:03:41;;;;;;;10.70;3.60;;;19.80;13.70;;;;;;5018356;28;46414;-64
2023/06/04 08:06:07;;;;;;;10.57;3.53;;;19.90;13.10;;;;;;5019039;28;45929;-64
2023/06/04 08:08:35;;;;;;;8.80;4.67;;;20.10;13.00;;;;;;5016838;28;46620;-65
2023/06/04 08:11:02;;;;;;;8.03;4.27;;;20.30;12.50;;;;;;5017924;28;46438;-64
2023/06/04 08:13:28;;;;;;;7.90;4.30;;;20.10;12.60;;;;;;5019335;28;46408;-61
2023/06/04 08:15:53;;;;;;;7.63;4.27;;;20.20;12.70;;;;;;5018796;28;46535;-62
2023/06/04 08:18:19;;;;;;;8.17;3.97;;;20.30;12.50;;;;;;5017213;28;46698;-65
2023/06/04 08:20:44;;;;;;;7.27;4.00;;;20.30;12.10;;;;;;5016556;28;46444;-63
2023/06/04 08:23:10;;;;;;;15.20;4.03;;;20.30;12.10;;;;;;5016468;28;46421;-65
2023/06/04 08:25:36;;;;;;;12.37;3.50;;;20.60;11.70;;;;;;5018235;28;45943;-65
2023/06/04 08:28:02;;;;;;;9.03;3.57;;;21.00;12.00;;;;;;5016906;28;46876;-66
2023/06/04 08:30:29;;;;;;;8.57;3.87;;;21.20;11.20;;;;;;5011432;28;46515;-65
2023/06/04 08:32:54;;;;;;;6.90;3.80;;;21.30;10.60;;;;;;5018763;28;46462;-65
2023/06/04 08:35:20;;;;;;;9.90;3.63;;;21.10;10.60;;;;;;5019113;28;46424;-65
2023/06/04 08:37:46;;;;;;;9.87;4.27;;;21.20;10.60;;;;;;4997689;28;47298;-65
2023/06/04 08:40:12;;;;;;;9.73;3.53;;;21.30;10.50;;;;;;5015099;28;46493;-65
2023/06/04 08:42:41;;;;;;;14.60;4.30;;;21.20;10.70;;;;;;5018802;28;46463;-64
2023/06/04 08:45:12;;;;;;;7.77;3.90;;;21.10;10.60;;;;;;5018490;28;46399;-65
2023/06/04 08:47:44;;;;;;;10.20;3.60;;;20.90;10.70;;;;;;5014813;28;46849;-66
2023/06/04 08:50:11;;;;;;;5.20;3.17;;;20.90;10.90;;;;;;5015557;28;46630;-64
2023/06/04 08:52:39;;;;;;;9.20;4.00;;;21.00;10.90;;;;;;5018779;28;46363;-65
2023/06/04 08:55:05;;;;;;;7.87;3.43;;;21.00;10.70;;;;;;5017086;28;46370;-65
2023/06/04 08:57:31;;;;;;;5.27;2.77;;;21.20;10.50;;;;;;5014465;28;46505;-64
2023/06/04 08:59:56;;;;;;;11.80;3.30;;;21.30;10.60;;;;;;5018541;28;46422;-64
2023/06/04 09:02:23;;;;;;;10.77;3.97;;;21.40;10.30;;;;;;5019556;28;46449;-65
2023/06/04 09:04:49;;;;;;;8.70;3.63;;;21.50;10.20;;;;;;5017049;28;46554;-64
2023/06/04 09:07:16;;;;;;;8.33;3.50;;;21.60;10.30;;;;;;5011181;28;48102;-63
2023/06/04 09:09:46;;;;;;;8.90;3.50;;;21.70;9.90;;;;;;5012273;28;46285;-63
2023/06/04 09:12:19;;;;;;;10.60;3.50;;;21.90;9.70;;;;;;5017891;28;45893;-62
2023/06/04 09:14:45;;;;;;;13.60;3.07;;;22.10;9.50;;;;;;5018432;28;46478;-61
2023/06/04 09:17:11;;;;;;;5.43;3.03;;;22.20;9.20;;;;;;5013895;28;47244;-62
2023/06/04 09:19:36;;;;;;;12.87;3.70;;;22.40;8.90;;;;;;5017291;28;46442;-62
2023/06/04 09:22:02;;;;;;;7.20;3.37;;;22.30;8.50;;;;;;5017090;28;46497;-62
2023/06/04 09:24:42;;;;;;;8.93;3.83;;;22.30;8.60;;;;;;5018654;28;46489;-64
2023/06/04 09:27:15;;;;;;;7.07;3.50;;;22.30;8.60;;;;;;5010616;28;47167;-62
2023/06/04 09:29:51;;;;;;;11.17;3.63;;;22.10;8.60;;;;;;5018188;28;46335;-63
2023/06/04 09:32:27;;;;;;;8.17;3.40;;;22.00;8.70;;;;;;5017022;28;46387;-63
2023/06/04 09:34:54;;;;;;;8.40;3.43;;;22.00;8.60;;;;;;5015124;28;46781;-62
2023/06/04 09:37:22;;;;;;;6.63;3.60;;;22.10;8.70;;;;;;5010477;28;47167;-62
2023/06/04 09:39:55;;;;;;;6.23;3.73;;;22.20;8.30;;;;;;5016823;28;46431;-63
2023/06/04 09:42:22;;;;;;;6.10;3.30;;;22.10;8.10;;;;;;5014687;28;46460;-63
2023/06/04 09:44:48;;;;;;;8.60;3.20;;;22.10;8.10;;;;;;5013338;28;46518;-64
2023/06/04 09:47:14;;;;;;;6.87;3.57;;;22.20;7.80;;;;;;5011455;28;46506;-63
2023/06/04 09:49:46;;;;;;;7.57;3.23;;;22.20;7.70;;;;;;5013410;28;46627;-63
2023/06/04 09:52:13;;;;;;;6.73;3.83;;;22.30;7.70;;;;;;5013527;28;46410;-62
2023/06/04 09:54:41;;;;;;;7.57;3.97;;;22.50;7.50;;;;;;5014514;28;46383;-63
2023/06/04 09:57:17;;;;;;;8.83;3.77;;;22.70;6.70;;;;;;5017277;28;47094;-63
2023/06/04 09:59:49;;;;;;;11.53;4.10;;;22.70;6.80;;;;;;5015391;28;45776;-65
2023/06/04 10:02:19;;;;;;;7.57;3.50;;;22.60;6.20;;;;;;5012005;28;46414;-65
2023/06/04 10:04:51;;;;;;;10.40;3.10;;;22.50;6.30;;;;;;5010900;28;46489;-65
2023/06/04 10:07:17;;;;;;;6.70;4.10;;;22.80;6.30;;;;;;5014661;28;47343;-65
2023/06/04 10:09:46;;;;;;;8.80;3.90;;;22.80;5.60;;;;;;5017448;28;46608;-65
2023/06/04 10:12:16;;;;;;;6.50;3.70;;;22.70;5.40;;;;;;5014155;28;46091;-65
2023/06/04 10:14:52;;;;;;;11.17;3.70;;;22.70;5.60;;;;;;5002912;28;46640;-66
2023/06/04 10:17:19;;;;;;;10.57;4.17;;;22.70;5.20;;;;;;5016634;28;46352;-66
2023/06/04 10:19:46;;;;;;;9.50;3.80;;;22.90;5.20;;;;;;5015035;28;46315;-66
2023/06/04 10:22:12;;;;;;;11.00;3.67;;;23.00;4.60;;;;;;5012606;28;46403;-65
2023/06/04 10:24:38;;;;;;;7.60;3.70;;;23.00;4.50;;;;;;5013163;28;46736;-65
2023/06/04 10:27:10;;;;;;;13.73;4.20;;;23.00;3.90;;;;;;5014558;28;46036;-65
2023/06/04 10:29:36;;;;;;;6.27;3.77;;;23.10;3.80;;;;;;5016413;28;46300;-66
2023/06/04 10:32:03;;;;;;;6.97;4.13;;;23.20;2.60;;;;;;5013161;28;46492;-64
2023/06/04 10:34:29;;;;;;;9.30;3.87;;;23.40;2.40;;;;;;5017148;28;46687;-64
2023/06/04 10:36:55;;;;;;;7.57;4.53;;;23.70;2.50;;;;;;5019978;28;46355;-64
2023/06/04 10:39:32;;;;;;;9.13;4.33;;;23.80;2.40;;;;;;5021324;28;46451;-65
2023/06/04 10:42:02;;;;;;;7.33;4.03;;;24.00;1.90;;;;;;5009832;28;46444;-64
2023/06/04 10:44:29;;;;;;;8.97;4.70;;;24.20;1.40;;;;;;5012360;28;46477;-65
2023/06/04 10:46:55;;;;;;;13.27;4.50;;;23.90;1.50;;;;;;5017174;28;46435;-64
2023/06/04 10:49:33;;;;;;;8.10;3.83;;;23.50;1.90;;;;;;5016521;28;46717;-66
2023/06/04 10:52:10;;;;;;;9.80;4.67;;;23.30;2.20;;;;;;5013928;28;46524;-66
2023/06/04 10:54:36;;;;;;;9.93;4.03;;;23.10;2.10;;;;;;5013339;28;46633;-65
2023/06/04 10:57:15;;;;;;;8.47;4.17;;;22.80;1.90;;;;;;5016093;28;47080;-65
2023/06/04 10:59:40;;;;;;;7.23;4.43;;;22.80;1.90;;;;;;5019355;28;46328;-68
2023/06/04 11:02:08;;;;;;;8.60;4.53;;;23.10;2.10;;;;;;5015639;28;46668;-66
2023/06/04 11:04:33;;;;;;;9.83;4.00;;;23.00;1.30;;;;;;5018533;28;46367;-66
2023/06/04 11:07:10;;;;;;;9.27;4.03;;;23.00;1.40;;;;;;5016850;28;46276;-66
2023/06/04 11:09:37;;;;;;;7.33;4.50;;;23.20;1.00;;;;;;5015742;28;46445;-67
2023/06/04 11:12:05;;;;;;;12.20;4.53;;;23.50;1.00;;;;;;5017402;28;46506;-66
2023/06/04 11:14:30;;;;;;;6.77;4.10;;;23.70;1.00;;;;;;5020237;28;46401;-66
2023/06/04 11:16:56;;;;;;;8.00;4.07;;;23.90;1.00;;;;;;5020313;28;47460;-66
2023/06/04 11:19:22;;;;;;;10.83;4.57;;;23.90;1.00;;;;;;5015475;28;46440;-67
2023/06/04 11:21:49;;;;;;;5.53;3.90;;;23.90;1.00;;;;;;5013099;28;46486;-67
2023/06/04 11:24:16;;;;;;;8.47;3.77;;;24.20;1.00;;;;;;5018708;28;46416;-66
2023/06/04 11:26:42;;;;;;;10.53;3.80;;;24.10;1.00;;;;;;5019649;28;46478;-66
2023/06/04 11:29:11;;;;;;;10.23;4.90;;;24.30;1.00;;;;;;5017877;28;46513;-66
2023/06/04 11:31:47;;;;;;;5.93;3.70;;;24.20;1.00;;;;;;5018480;28;46403;-65
2023/06/04 11:34:33;;;;;;;8.90;3.77;;;24.00;1.00;;;;;;5015955;28;46284;-67
2023/06/04 11:37:10;;;;;;;6.87;4.20;;;24.00;1.00;;;;;;5016999;28;46390;-65
2023/06/04 11:39:38;;;;;;;9.87;4.47;;;24.10;1.00;;;;;;5016197;28;46738;-68
2023/06/04 11:42:07;;;;;;;6.13;3.63;;;24.20;1.00;;;;;;5016910;28;46421;-66
2023/06/04 11:44:33;;;;;;;10.50;3.77;;;24.10;1.00;;;;;;5016815;28;46832;-63
2023/06/04 11:46:59;;;;;;;10.03;3.70;;;24.20;1.00;;;;;;5018247;28;47426;-66
2023/06/04 11:49:26;;;;;;;8.33;4.00;;;24.50;1.00;;;;;;5013908;28;46373;-66
2023/06/04 11:51:52;;;;;;;8.83;4.07;;;24.50;1.00;;;;;;5017127;28;45887;-64
2023/06/04 11:54:20;;;;;;;7.67;4.00;;;24.50;1.00;;;;;;5017416;28;46611;-65
2023/06/04 11:56:48;;;;;;;7.33;4.00;;;24.50;1.00;;;;;;5015728;28;46454;-65
2023/06/04 11:59:15;;;;;;;10.10;4.20;;;24.40;1.00;;;;;;5014673;28;46696;-65
2023/06/04 12:01:45;;;;;;;10.67;4.40;;;24.80;1.00;;;;;;5014713;28;46412;-65
2023/06/04 12:04:16;;;;;;;7.70;4.10;;;24.90;1.00;;;;;;5015637;28;46901;-65
2023/06/04 12:07:00;;;;;;;8.43;4.00;;;25.10;1.00;;;;;;5018411;28;46391;-66
2023/06/04 12:09:27;;;;;;;8.27;4.00;;;25.00;1.00;;;;;;4989592;28;46447;-65
2023/06/04 12:12:00;;;;;;;10.33;3.70;;;24.80;1.00;;;;;;5017492;28;46427;-66
2023/06/04 12:14:25;;;;;;;8.70;4.60;;;24.80;1.00;;;;;;5014903;28;46590;-65
2023/06/04 12:17:15;;;;;;;6.43;4.20;;;24.80;1.00;;;;;;5017499;28;46455;-65
2023/06/04 12:19:50;;;;;;;6.80;3.60;;;24.60;1.00;;;;;;5017009;28;46375;-65
2023/06/04 12:22:16;;;;;;;6.77;3.57;;;24.10;1.00;;;;;;5015517;28;46630;-65
2023/06/04 12:24:53;;;;;;;7.30;4.10;;;24.00;1.00;;;;;;5014512;28;46569;-64
2023/06/04 12:27:19;;;;;;;8.60;4.30;;;24.10;1.00;;;;;;5017309;28;46375;-64
2023/06/04 12:30:03;;;;;;;8.90;4.27;;;24.20;1.00;;;;;;5016576;28;46498;-65
2023/06/04 12:32:29;;;;;;;8.73;4.10;;;24.10;1.00;;;;;;5019121;28;46786;-65
2023/06/04 12:34:55;;;;;;;7.13;3.63;;;24.10;1.00;;;;;;5017787;28;46462;-65
2023/06/04 12:37:27;;;;;;;8.20;3.50;;;24.20;1.00;;;;;;5012103;28;46470;-64
2023/06/04 12:39:54;;;;;;;7.80;3.90;;;24.40;1.00;;;;;;5010589;28;46447;-64
2023/06/04 12:42:20;;;;;;;11.10;4.60;;;24.50;1.00;;;;;;5017773;28;46418;-64
2023/06/04 12:44:46;;;;;;;6.00;3.80;;;24.70;1.00;;;;;;5017614;28;46379;-64
2023/06/04 12:47:12;;;;;;;7.23;4.40;;;24.70;1.00;;;;;;5017270;28;46475;-65